Time,TemperatureF,DewpointF,PressureIn,WindDirection,WindDirectionDegrees,WindSpeedMPH,WindSpeedGustMPH,Humidity,HourlyPrecipIn,Conditions,Clouds,dailyrainin,SolarRadiationWatts/m^2,SoftwareType,DateUTC
2013-02-12 00:11:00,29.0,28.0,-100.00,South,187,0.0,2.0,96,0.00,,,0.00,0.000000,,2013-02-12 08:11:00,
2013-02-12 00:21:00,29.0,28.0,-100.00,South,187,0.0,2.0,96,0.00,,,0.00,0.000000,,2013-02-12 08:21:00,
2013-02-12 00:31:00,29.0,28.0,-100.00,South,187,0.0,2.0,96,0.00,,,0.00,0.000000,,2013-02-12 08:31:00,
2013-02-12 00:41:00,29.0,28.0,-100.00,South,187,0.0,2.0,96,0.00,,,0.00,0.000000,,2013-02-12 08:41:00,
2013-02-12 01:11:00,29.0,28.0,-100.00,West,275,0.0,2.0,96,0.00,,,0.00,0.000000,,2013-02-12 09:11:00,
2013-02-12 01:21:00,29.0,28.0,-100.00,West,275,0.0,2.0,96,0.00,,,0.00,0.000000,,2013-02-12 09:21:00,
2013-02-12 01:31:00,29.0,28.0,-100.00,West,275,0.0,2.0,96,0.00,,,0.00,0.000000,,2013-02-12 09:31:00,
2013-02-12 01:41:00,29.0,28.0,-100.00,West,275,0.0,2.0,96,0.00,,,0.00,0.000000,,2013-02-12 09:41:00,
2013-02-12 01:51:00,29.0,28.0,-100.00,West,275,0.0,2.0,96,0.00,,,0.00,0.000000,,2013-02-12 09:51:00,
2013-02-12 02:11:00,30.0,29.0,-100.00,West,264,0.0,0.0,96,0.00,,,0.00,0.000000,,2013-02-12 10:11:00,
2013-02-12 02:21:00,30.0,29.0,-100.00,West,264,0.0,0.0,96,0.00,,,0.00,0.000000,,2013-02-12 10:21:00,
2013-02-12 02:31:00,30.0,29.0,-100.00,West,264,0.0,0.0,96,0.00,,,0.00,0.000000,,2013-02-12 10:31:00,
2013-02-12 02:43:00,30.0,29.0,-100.00,West,264,0.0,0.0,96,0.00,,,0.00,0.000000,,2013-02-12 10:43:00,
2013-02-12 02:51:00,30.0,29.0,-100.00,West,264,0.0,0.0,96,0.00,,,0.00,0.000000,,2013-02-12 10:51:00,
2013-02-12 02:52:00,30.0,29.0,-100.00,WNW,283,0.0,0.0,96,0.00,,,0.00,0.000000,,2013-02-12 10:52:00,
2013-02-12 03:11:00,30.0,29.0,-100.00,WNW,283,0.0,0.0,96,0.00,,,0.00,0.000000,,2013-02-12 11:11:00,
2013-02-12 03:21:00,30.0,29.0,-100.00,WNW,283,0.0,0.0,96,0.00,,,0.00,0.000000,,2013-02-12 11:21:00,
2013-02-12 03:31:00,30.0,29.0,-100.00,WNW,283,0.0,0.0,96,0.00,,,0.00,0.000000,,2013-02-12 11:31:00,
2013-02-12 03:41:00,30.0,29.0,-100.00,WNW,283,0.0,0.0,96,0.00,,,0.00,0.000000,,2013-02-12 11:41:00,
2013-02-12 03:52:00,30.0,29.0,-100.00,ENE,76,0.0,2.0,96,0.00,,,0.00,0.000000,,2013-02-12 11:52:00,
2013-02-12 04:11:00,30.0,29.0,-100.00,ENE,76,0.0,2.0,96,0.00,,,0.00,0.000000,,2013-02-12 12:11:00,
2013-02-12 04:21:00,30.0,29.0,-100.00,ENE,76,0.0,2.0,96,0.00,,,0.00,0.000000,,2013-02-12 12:21:00,
2013-02-12 04:32:00,30.0,29.0,-100.00,ENE,76,0.0,2.0,96,0.00,,,0.00,0.000000,,2013-02-12 12:32:00,
2013-02-12 04:42:00,30.0,29.0,-100.00,ENE,76,0.0,2.0,96,0.00,,,0.00,0.000000,,2013-02-12 12:42:00,
2013-02-12 05:11:00,30.0,29.0,-100.00,WNW,290,0.0,1.0,96,0.00,,,-99.99,0.000000,,2013-02-12 13:11:00,
2013-02-12 05:22:00,30.0,29.0,-100.00,WNW,290,0.0,1.0,96,0.00,,,-99.99,0.000000,,2013-02-12 13:22:00,
2013-02-12 05:31:00,30.0,29.0,-100.00,WNW,290,0.0,1.0,96,0.00,,,-99.99,0.000000,,2013-02-12 13:31:00,
2013-02-12 05:42:00,30.0,29.0,-100.00,WNW,290,0.0,1.0,96,0.00,,,-99.99,0.000000,,2013-02-12 13:42:00,
2013-02-12 05:51:00,30.0,29.0,-100.00,WNW,290,0.0,1.0,96,0.00,,,-99.99,0.000000,,2013-02-12 13:51:00,
2013-02-12 05:52:00,30.0,29.0,-100.00,NNW,328,0.0,0.0,96,0.00,,,0.00,0.000000,,2013-02-12 13:52:00,
2013-02-12 06:11:00,30.0,29.0,-100.00,NNW,328,0.0,0.0,96,0.00,,,0.00,0.000000,,2013-02-12 14:11:00,
2013-02-12 06:21:00,30.0,29.0,-100.00,NNW,328,0.0,0.0,96,0.00,,,0.00,0.000000,,2013-02-12 14:21:00,
2013-02-12 06:31:00,30.0,29.0,-100.00,NNW,328,0.0,0.0,96,0.00,,,0.00,0.000000,,2013-02-12 14:31:00,
2013-02-12 06:41:00,30.0,29.0,-100.00,NNW,328,0.0,0.0,96,0.00,,,0.00,0.000000,,2013-02-12 14:41:00,
2013-02-12 06:52:00,30.0,29.0,-100.00,NNE,22,0.0,0.0,97,0.00,,,0.00,0.000000,,2013-02-12 14:52:00,
2013-02-12 07:11:00,30.0,29.0,-100.00,NNE,22,0.0,0.0,97,0.00,,,0.00,0.000000,,2013-02-12 15:11:00,
2013-02-12 07:21:00,30.0,29.0,-100.00,NNE,22,0.0,0.0,97,0.00,,,0.00,0.000000,,2013-02-12 15:21:00,
2013-02-12 07:32:00,30.0,29.0,-100.00,NNE,22,0.0,0.0,97,0.00,,,0.00,0.000000,,2013-02-12 15:32:00,
2013-02-12 07:42:00,30.0,29.0,-100.00,NNE,22,0.0,0.0,97,0.00,,,0.00,0.000000,,2013-02-12 15:42:00,
2013-02-12 08:22:00,31.0,30.0,-100.00,NNE,22,0.0,0.0,95,0.00,,,0.00,17.000000,,2013-02-12 16:22:00,
2013-02-12 08:31:00,31.0,30.0,-100.00,NNE,22,0.0,0.0,95,0.00,,,0.00,17.000000,,2013-02-12 16:31:00,
2013-02-12 08:41:00,31.0,30.0,-100.00,NNE,22,0.0,0.0,95,0.00,,,0.00,17.000000,,2013-02-12 16:41:00,
2013-02-12 08:51:00,31.0,30.0,-100.00,NNE,22,0.0,0.0,95,0.00,,,0.00,17.000000,,2013-02-12 16:51:00,
2013-02-12 08:52:00,33.0,31.0,-100.00,South,185,0.0,0.0,91,0.00,,,0.00,45.000000,,2013-02-12 16:52:00,
2013-02-12 09:11:00,33.0,31.0,-100.00,South,185,0.0,0.0,91,0.00,,,0.00,45.000000,,2013-02-12 17:11:00,
2013-02-12 09:21:00,33.0,31.0,-100.00,South,185,0.0,0.0,91,0.00,,,0.00,45.000000,,2013-02-12 17:21:00,
2013-02-12 09:31:00,33.0,31.0,-100.00,South,185,0.0,0.0,91,0.00,,,0.00,45.000000,,2013-02-12 17:31:00,
2013-02-12 09:41:00,33.0,31.0,-100.00,South,185,0.0,0.0,91,0.00,,,0.00,45.000000,,2013-02-12 17:41:00,
2013-02-12 10:11:00,35.0,32.0,-100.00,ENE,58,0.0,1.0,90,0.00,,,0.00,51.000000,,2013-02-12 18:11:00,
2013-02-12 10:22:00,35.0,32.0,-100.00,ENE,58,0.0,1.0,90,0.00,,,0.00,51.000000,,2013-02-12 18:22:00,
2013-02-12 10:31:00,35.0,32.0,-100.00,ENE,58,0.0,1.0,90,0.00,,,0.00,51.000000,,2013-02-12 18:31:00,
2013-02-12 10:41:00,35.0,32.0,-100.00,ENE,58,0.0,1.0,90,0.00,,,0.00,51.000000,,2013-02-12 18:41:00,
2013-02-12 10:51:00,35.0,32.0,-100.00,ENE,58,0.0,1.0,90,0.00,,,0.00,51.000000,,2013-02-12 18:51:00,
2013-02-12 11:11:00,38.0,33.0,-100.00,SSW,204,1.0,3.0,81,0.00,,,0.00,114.000000,,2013-02-12 19:11:00,
2013-02-12 11:21:00,38.0,33.0,-100.00,SSW,204,1.0,3.0,81,0.00,,,0.00,114.000000,,2013-02-12 19:21:00,
2013-02-12 11:31:00,38.0,33.0,-100.00,SSW,204,1.0,3.0,81,0.00,,,0.00,114.000000,,2013-02-12 19:31:00,
2013-02-12 11:41:00,38.0,33.0,-100.00,SSW,204,1.0,3.0,81,0.00,,,0.00,114.000000,,2013-02-12 19:41:00,
2013-02-12 11:51:00,38.0,33.0,-100.00,SSW,204,1.0,3.0,81,0.00,,,0.00,114.000000,,2013-02-12 19:51:00,
2013-02-12 12:11:00,42.0,33.0,-100.00,SSW,194,2.0,7.0,71,0.00,,,-99.99,226.000000,,2013-02-12 20:11:00,
2013-02-12 12:21:00,42.0,33.0,-100.00,SSW,194,2.0,7.0,71,0.00,,,-99.99,226.000000,,2013-02-12 20:21:00,
2013-02-12 12:31:00,42.0,33.0,-100.00,SSW,194,2.0,7.0,71,0.00,,,-99.99,226.000000,,2013-02-12 20:31:00,
2013-02-12 12:41:00,42.0,33.0,-100.00,SSW,194,2.0,7.0,71,0.00,,,-99.99,226.000000,,2013-02-12 20:41:00,
2013-02-12 12:51:00,42.0,33.0,-100.00,SSW,194,2.0,7.0,71,0.00,,,-99.99,226.000000,,2013-02-12 20:51:00,
2013-02-12 13:21:00,38.0,32.0,-100.00,SSE,161,1.0,7.0,80,0.00,,,0.00,137.000000,,2013-02-12 21:21:00,
2013-02-12 13:31:00,38.0,32.0,-100.00,SSE,161,1.0,7.0,80,0.00,,,0.00,137.000000,,2013-02-12 21:31:00,
2013-02-12 13:41:00,38.0,32.0,-100.00,SSE,161,1.0,7.0,80,0.00,,,0.00,137.000000,,2013-02-12 21:41:00,
2013-02-12 13:51:00,38.0,32.0,-100.00,SSE,161,1.0,7.0,80,0.00,,,0.00,137.000000,,2013-02-12 21:51:00,
2013-02-12 14:21:00,37.0,33.0,-100.00,ENE,76,0.0,5.0,85,0.00,,,0.00,93.000000,,2013-02-12 22:21:00,
2013-02-12 14:31:00,37.0,33.0,-100.00,ENE,76,0.0,5.0,85,0.00,,,0.00,93.000000,,2013-02-12 22:31:00,
2013-02-12 14:41:00,37.0,33.0,-100.00,ENE,76,0.0,5.0,85,0.00,,,0.00,93.000000,,2013-02-12 22:41:00,
2013-02-12 14:51:00,37.0,33.0,-100.00,ENE,76,0.0,5.0,85,0.00,,,0.00,93.000000,,2013-02-12 22:51:00,
2013-02-12 14:52:00,38.0,34.0,-100.00,North,8,0.0,1.0,87,0.00,,,0.00,79.000000,,2013-02-12 22:52:00,
2013-02-12 15:11:00,38.0,34.0,-100.00,North,8,0.0,1.0,87,0.00,,,0.00,79.000000,,2013-02-12 23:11:00,
2013-02-12 15:21:00,38.0,34.0,-100.00,North,8,0.0,1.0,87,0.00,,,0.00,79.000000,,2013-02-12 23:21:00,
2013-02-12 15:31:00,38.0,34.0,-100.00,North,8,0.0,1.0,87,0.00,,,0.00,79.000000,,2013-02-12 23:31:00,
2013-02-12 15:41:00,38.0,34.0,-100.00,North,8,0.0,1.0,87,0.00,,,0.00,79.000000,,2013-02-12 23:41:00,
2013-02-12 16:21:00,36.0,34.0,-100.00,North,356,0.0,2.0,91,0.00,,,0.00,53.000000,,2013-02-13 00:21:00,
2013-02-12 16:32:00,36.0,34.0,-100.00,North,356,0.0,2.0,91,0.00,,,0.00,53.000000,,2013-02-13 00:32:00,
2013-02-12 16:42:00,36.0,34.0,-100.00,North,356,0.0,2.0,91,0.00,,,0.00,53.000000,,2013-02-13 00:42:00,
2013-02-12 16:51:00,36.0,34.0,-100.00,North,356,0.0,2.0,91,0.00,,,0.00,53.000000,,2013-02-13 00:51:00,
2013-02-12 17:42:00,34.0,32.0,-100.00,NNE,22,0.0,3.0,94,0.00,,,0.00,15.000000,,2013-02-13 01:42:00,
2013-02-12 17:51:00,34.0,32.0,-100.00,NNE,22,0.0,3.0,94,0.00,,,0.00,15.000000,,2013-02-13 01:51:00,
2013-02-12 17:52:00,33.0,32.0,-100.00,NNE,31,0.0,3.0,96,0.00,,,0.00,1.000000,,2013-02-13 01:52:00,
2013-02-12 18:21:00,33.0,32.0,-100.00,NNE,31,0.0,3.0,96,0.00,,,0.00,1.000000,,2013-02-13 02:21:00,
2013-02-12 18:31:00,33.0,32.0,-100.00,NNE,31,0.0,3.0,96,0.00,,,0.00,1.000000,,2013-02-13 02:31:00,
2013-02-12 18:41:00,33.0,32.0,-100.00,NNE,31,0.0,3.0,96,0.00,,,0.00,1.000000,,2013-02-13 02:41:00,
2013-02-12 19:11:00,32.0,31.0,-100.00,NNE,26,0.0,2.0,96,0.00,,,0.00,0.000000,,2013-02-13 03:11:00,
2013-02-12 19:21:00,32.0,31.0,-100.00,NNE,26,0.0,2.0,96,0.00,,,0.00,0.000000,,2013-02-13 03:21:00,
2013-02-12 19:32:00,32.0,31.0,-100.00,NNE,26,0.0,2.0,96,0.00,,,0.00,0.000000,,2013-02-13 03:32:00,
2013-02-12 19:41:00,32.0,31.0,-100.00,NNE,26,0.0,2.0,96,0.00,,,0.00,0.000000,,2013-02-13 03:41:00,
2013-02-12 19:51:00,32.0,31.0,-100.00,NNE,26,0.0,2.0,96,0.00,,,0.00,0.000000,,2013-02-13 03:51:00,
2013-02-12 20:11:00,32.0,31.0,-100.00,NNE,23,0.0,2.0,96,0.00,,,0.00,0.000000,,2013-02-13 04:11:00,
2013-02-12 20:21:00,32.0,31.0,-100.00,NNE,23,0.0,2.0,96,0.00,,,0.00,0.000000,,2013-02-13 04:21:00,
2013-02-12 20:31:00,32.0,31.0,-100.00,NNE,23,0.0,2.0,96,0.00,,,0.00,0.000000,,2013-02-13 04:31:00,
2013-02-12 20:41:00,32.0,31.0,-100.00,NNE,23,0.0,2.0,96,0.00,,,0.00,0.000000,,2013-02-13 04:41:00,
2013-02-12 20:51:00,32.0,31.0,-100.00,NNE,23,0.0,2.0,96,0.00,,,0.00,0.000000,,2013-02-13 04:51:00,
2013-02-12 20:52:00,32.0,31.0,-100.00,NNE,22,0.0,2.0,96,0.00,,,0.00,0.000000,,2013-02-13 04:52:00,
2013-02-12 21:11:00,32.0,31.0,-100.00,NNE,22,0.0,2.0,96,0.00,,,0.00,0.000000,,2013-02-13 05:11:00,
2013-02-12 21:22:00,32.0,31.0,-100.00,NNE,22,0.0,2.0,96,0.00,,,0.00,0.000000,,2013-02-13 05:22:00,
2013-02-12 21:31:00,32.0,31.0,-100.00,NNE,22,0.0,2.0,96,0.00,,,0.00,0.000000,,2013-02-13 05:31:00,
2013-02-12 21:41:00,32.0,31.0,-100.00,NNE,22,0.0,2.0,96,0.00,,,0.00,0.000000,,2013-02-13 05:41:00,
2013-02-12 22:11:00,32.0,31.0,-100.00,NE,34,0.0,1.0,97,0.00,,,0.00,0.000000,,2013-02-13 06:11:00,
2013-02-12 22:21:00,32.0,31.0,-100.00,NE,34,0.0,1.0,97,0.00,,,0.00,0.000000,,2013-02-13 06:21:00,
2013-02-12 22:31:00,32.0,31.0,-100.00,NE,34,0.0,1.0,97,0.00,,,0.00,0.000000,,2013-02-13 06:31:00,
2013-02-12 22:41:00,32.0,31.0,-100.00,NE,34,0.0,1.0,97,0.00,,,0.00,0.000000,,2013-02-13 06:41:00,
2013-02-12 22:51:00,32.0,31.0,-100.00,NE,34,0.0,1.0,97,0.00,,,0.00,0.000000,,2013-02-13 06:51:00,
2013-02-12 23:21:00,32.0,31.0,-100.00,NE,48,0.0,1.0,96,0.00,,,0.00,0.000000,,2013-02-13 07:21:00,
2013-02-12 23:31:00,32.0,31.0,-100.00,NE,48,0.0,1.0,96,0.00,,,0.00,0.000000,,2013-02-13 07:31:00,
2013-02-12 23:41:00,32.0,31.0,-100.00,NE,48,0.0,1.0,96,0.00,,,0.00,0.000000,,2013-02-13 07:41:00,
2013-02-12 23:51:00,32.0,31.0,-100.00,NE,48,0.0,1.0,96,0.00,,,0.00,0.000000,,2013-02-13 07:51:00,